Time;durP1;ratioP1;P1;durP2;ratioP2;P2;SDS_P1;SDS_P2;PMS_P1;PMS_P2;Temp;Humidity;BMP_temperature;BMP_pressure;BME280_temperature;BME280_humidity;BME280_pressure;Samples;Min_cycle;Max_cycle;Signal;HPM_P1;HPM_P2
2024/01/29 00:02:14;;;;;;;0.30;0.30;;;;;;;2.61;65.56;98656.06;4963635;28;20066;-62
2024/01/29 00:04:41;;;;;;;0.20;0.20;;;;;;;2.33;63.95;98664.91;4964028;28;20051;-62
2024/01/29 00:07:08;;;;;;;0.20;0.20;;;;;;;2.47;62.65;98655.00;4966814;28;20058;-62
2024/01/29 00:09:34;;;;;;;0.20;0.20;;;;;;;2.38;63.66;98664.91;4968714;28;20062;-62
2024/01/29 00:12:01;;;;;;;0.20;0.20;;;;;;;2.58;62.75;98667.56;4968713;28;20058;-63
2024/01/29 00:14:28;;;;;;;0.20;0.20;;;;;;;2.65;61.67;98674.38;4968534;28;20054;-63
2024/01/29 00:16:55;;;;;;;0.20;0.20;;;;;;;2.51;62.19;98667.06;4968422;28;20050;-62
2024/01/29 00:19:22;;;;;;;0.20;0.20;;;;;;;2.47;62.56;98676.88;4968195;28;20050;-62
2024/01/29 00:21:50;;;;;;;0.20;0.20;;;;;;;2.56;62.79;98667.84;4968616;28;20058;-62
2024/01/29 00:24:17;;;;;;;0.20;0.20;;;;;;;1.87;61.23;98606.81;4968327;28;20520;-63
2024/01/29 00:26:44;;;;;;;0.20;0.20;;;;;;;2.10;62.46;98670.97;4968333;28;20054;-64
2024/01/29 00:29:11;;;;;;;0.20;0.20;;;;;;;1.50;63.24;98573.56;4968389;28;20058;-62
2024/01/29 00:31:37;;;;;;;0.20;0.20;;;;;;;2.00;62.35;98671.00;4968161;28;20521;-62
2024/01/29 00:34:04;;;;;;;0.20;0.20;;;;;;;1.74;61.88;98617.50;4966465;28;20429;-63
2024/01/29 00:36:31;;;;;;;0.20;0.20;;;;;;;2.06;62.94;98669.88;4967961;28;20047;-63
2024/01/29 00:38:58;;;;;;;0.20;0.20;;;;;;;2.07;63.00;98666.06;4968507;28;20078;-62
2024/01/29 00:41:24;;;;;;;0.20;0.20;;;;;;;1.81;62.30;98637.13;4968199;28;20074;-62
2024/01/29 00:43:51;;;;;;;0.20;0.20;;;;;;;2.01;61.86;98687.09;4968263;28;20058;-62
2024/01/29 00:46:19;;;;;;;0.20;0.20;;;;;;;1.55;63.33;98620.78;4967858;28;20059;-62
2024/01/29 00:48:46;;;;;;;0.20;0.20;;;;;;;2.24;64.75;98683.81;4968363;28;20062;-62
2024/01/29 00:51:13;;;;;;;0.20;0.20;;;;;;;2.09;64.65;98625.59;4967777;28;20055;-62
2024/01/29 00:53:40;;;;;;;0.20;0.20;;;;;;;2.30;64.48;98687.34;4967839;28;20446;-62
2024/01/29 00:56:07;;;;;;;0.20;0.20;;;;;;;2.06;65.42;98689.00;4967805;28;20074;-63
2024/01/29 00:58:34;;;;;;;0.20;0.20;;;;;;;2.31;66.04;98699.94;4965931;28;20134;-62
2024/01/29 01:01:01;;;;;;;0.20;0.20;;;;;;;2.27;65.86;98693.34;4967222;28;20050;-62
2024/01/29 01:03:28;;;;;;;0.22;0.22;;;;;;;2.38;66.13;98701.28;4967613;28;20061;-62
2024/01/29 01:05:55;;;;;;;0.20;0.20;;;;;;;2.27;66.38;98707.03;4967783;28;20073;-62
2024/01/29 01:08:22;;;;;;;0.20;0.20;;;;;;;2.08;66.78;98705.97;4966134;28;20545;-63
2024/01/29 01:10:49;;;;;;;0.20;0.20;;;;;;;2.01;67.85;98699.97;4967261;28;20139;-62
2024/01/29 01:13:15;;;;;;;0.20;0.20;;;;;;;1.80;67.83;98665.56;4966082;28;20375;-62
2024/01/29 01:15:42;;;;;;;0.20;0.20;;;;;;;1.17;67.49;98580.38;4966947;28;20562;-62
2024/01/29 01:18:09;;;;;;;0.20;0.20;;;;;;;2.08;68.03;98695.03;4966985;28;20077;-62
2024/01/29 01:20:37;;;;;;;0.20;0.20;;;;;;;2.21;67.59;98689.00;4965562;28;20502;-62
2024/01/29 01:23:03;;;;;;;0.20;0.20;;;;;;;1.80;68.33;98703.81;4967515;28;20054;-63
2024/01/29 01:25:30;;;;;;;0.28;0.28;;;;;;;1.55;70.52;98685.47;4966229;28;20057;-62
2024/01/29 01:27:57;;;;;;;0.20;0.20;;;;;;;1.39;69.29;98654.63;4982003;28;20134;-63
2024/01/29 01:30:24;;;;;;;0.20;0.20;;;;;;;1.63;70.09;98708.72;4965809;28;20109;-68
2024/01/29 01:32:50;;;;;;;0.20;0.20;;;;;;;1.82;69.77;98701.63;4967040;28;20137;-62
2024/01/29 01:35:17;;;;;;;0.20;0.20;;;;;;;1.69;68.69;98663.94;4967155;28;20085;-63
2024/01/29 01:37:44;;;;;;;0.20;0.20;;;;;;;1.56;69.13;98704.31;4967323;28;20616;-63
2024/01/29 01:40:11;;;;;;;0.20;0.20;;;;;;;1.06;71.65;98670.69;4965370;28;20061;-62
2024/01/29 01:42:39;;;;;;;0.20;0.20;;;;;;;1.37;71.08;98700.50;4967191;28;20047;-62
2024/01/29 01:45:07;;;;;;;0.20;0.20;;;;;;;0.94;70.52;98638.19;4966999;28;20059;-62
2024/01/29 01:47:35;;;;;;;0.20;0.20;;;;;;;1.11;70.92;98657.88;4966910;28;20055;-63
2024/01/29 01:50:08;;;;;;;0.20;0.20;;;;;;;0.85;71.01;98620.72;4966424;28;20330;-62
2024/01/29 01:52:37;;;;;;;0.20;0.20;;;;;;;0.85;71.46;98645.28;4967085;28;20062;-62
2024/01/29 01:55:04;;;;;;;0.20;0.20;;;;;;;0.88;72.64;98691.09;4966771;28;20458;-64
2024/01/29 01:57:31;;;;;;;0.20;0.20;;;;;;;0.94;73.17;98690.03;4966901;28;20058;-64
2024/01/29 01:59:58;;;;;;;0.20;0.20;;;;;;;0.88;74.23;98679.38;4965304;28;20139;-63
2024/01/29 02:02:26;;;;;;;0.20;0.20;;;;;;;0.76;74.92;98676.88;4966589;28;20047;-62
2024/01/29 02:04:53;;;;;;;0.20;0.20;;;;;;;0.76;74.72;98676.88;4965152;28;20062;-62
2024/01/29 02:07:19;;;;;;;0.20;0.20;;;;;;;0.65;75.96;98666.22;4964792;28;20073;-63
2024/01/29 02:09:47;;;;;;;0.20;0.20;;;;;;;0.57;76.69;98667.53;4966674;28;20053;-62
2024/01/29 02:12:15;;;;;;;0.20;0.20;;;;;;;0.56;77.56;98671.34;4966778;28;20158;-62
2024/01/29 02:14:42;;;;;;;0.20;0.20;;;;;;;0.63;77.40;98677.38;4966354;28;20054;-63
2024/01/29 02:17:08;;;;;;;0.20;0.20;;;;;;;0.54;77.80;98683.63;4966460;28;20047;-62
2024/01/29 02:19:35;;;;;;;0.20;0.20;;;;;;;-0.13;78.16;98569.13;4965121;28;20067;-62
2024/01/29 02:22:02;;;;;;;0.20;0.20;;;;;;;-0.10;78.43;98596.66;4964782;28;20055;-63
2024/01/29 02:24:29;;;;;;;0.20;0.20;;;;;;;0.66;78.06;98698.66;4966136;28;20077;-62
2024/01/29 02:26:56;;;;;;;0.20;0.20;;;;;;;0.68;77.87;98691.00;4965983;28;20047;-65
2024/01/29 02:29:23;;;;;;;0.20;0.20;;;;;;;0.45;77.97;98683.28;4965653;28;20055;-62
2024/01/29 02:31:50;;;;;;;0.20;0.20;;;;;;;0.68;77.79;98712.81;4965642;28;20141;-62
2024/01/29 02:34:17;;;;;;;0.20;0.20;;;;;;;0.31;78.12;98630.34;4966152;28;20051;-63
2024/01/29 02:36:44;;;;;;;0.20;0.20;;;;;;;0.69;77.33;98703.56;4964449;28;20050;-63
2024/01/29 02:39:11;;;;;;;0.20;0.20;;;;;;;0.71;76.70;98701.38;4965615;28;20058;-68
2024/01/29 02:41:39;;;;;;;0.20;0.20;;;;;;;0.86;76.54;98709.63;4966103;28;20502;-68
2024/01/29 02:44:06;;;;;;;0.20;0.20;;;;;;;0.81;76.18;98700.59;4964191;28;20047;-63
2024/01/29 02:46:33;;;;;;;0.20;0.20;;;;;;;0.84;76.68;98706.34;4964385;28;20062;-62
2024/01/29 02:48:59;;;;;;;0.20;0.20;;;;;;;0.43;76.14;98636.38;4964356;28;20154;-68
2024/01/29 02:51:26;;;;;;;0.20;0.20;;;;;;;0.87;76.57;98699.56;4964299;28;20581;-68
2024/01/29 02:53:53;;;;;;;0.20;0.20;;;;;;;0.85;77.13;98705.28;4965853;28;20141;-68
2024/01/29 02:56:20;;;;;;;0.20;0.20;;;;;;;0.95;75.95;98697.13;4964142;28;20058;-68
2024/01/29 02:58:46;;;;;;;0.20;0.20;;;;;;;0.65;76.14;98697.00;4965728;28;20063;-68
2024/01/29 03:01:13;;;;;;;0.20;0.20;;;;;;;0.73;76.56;98701.94;4965631;28;20504;-62
2024/01/29 03:03:40;;;;;;;0.20;0.20;;;;;;;0.51;76.81;98690.41;4965554;28;20057;-61
2024/01/29 03:06:07;;;;;;;0.20;0.20;;;;;;;0.03;76.54;98583.63;4965398;28;20057;-62
2024/01/29 03:08:34;;;;;;;0.20;0.20;;;;;;;-1.47;76.80;98360.50;4965290;28;20054;-62
2024/01/29 03:11:00;;;;;;;0.20;0.20;;;;;;;0.71;76.96;98701.38;4965320;28;20129;-62
2024/01/29 03:13:27;;;;;;;0.20;0.20;;;;;;;0.75;76.71;98698.94;4963918;28;20055;-69
2024/01/29 03:15:54;;;;;;;0.20;0.20;;;;;;;0.72;75.76;98716.69;4965601;28;20050;-69
2024/01/29 03:18:21;;;;;;;0.20;0.20;;;;;;;0.74;75.65;98717.25;4963352;28;20588;-70
2024/01/29 03:20:48;;;;;;;0.20;0.20;;;;;;;0.73;75.40;98704.66;4965281;28;20051;-68
2024/01/29 03:23:14;;;;;;;0.20;0.20;;;;;;;0.72;76.29;98718.56;4965222;28;20069;-69
2024/01/29 03:25:41;;;;;;;0.20;0.20;;;;;;;0.72;76.29;98707.66;4965096;28;20157;-69
2024/01/29 03:28:09;;;;;;;0.20;0.20;;;;;;;0.71;74.96;98722.41;4965535;28;20061;-69
2024/01/29 03:30:35;;;;;;;0.20;0.20;;;;;;;0.68;76.23;98723.72;4965471;28;20055;-68
2024/01/29 03:33:02;;;;;;;0.20;0.20;;;;;;;0.80;75.61;98720.78;4964230;28;20079;-69
2024/01/29 03:35:29;;;;;;;0.20;0.20;;;;;;;0.62;76.41;98711.16;4964819;28;20518;-69
2024/01/29 03:37:56;;;;;;;0.20;0.20;;;;;;;0.69;75.66;98725.41;4964164;28;20080;-68
2024/01/29 03:40:23;;;;;;;0.20;0.20;;;;;;;0.40;75.83;98682.44;4966770;28;20059;-69
2024/01/29 03:42:50;;;;;;;0.20;0.20;;;;;;;0.51;76.06;98674.03;4968822;28;20078;-68
2024/01/29 03:45:17;;;;;;;0.20;0.20;;;;;;;0.54;74.63;98678.97;4968584;28;20505;-69
2024/01/29 03:47:43;;;;;;;0.20;0.20;;;;;;;0.89;75.43;98724.63;4974418;28;20065;-69
2024/01/29 03:50:10;;;;;;;0.20;0.20;;;;;;;0.79;75.26;98719.97;4968459;28;20051;-68
2024/01/29 03:52:37;;;;;;;0.20;0.20;;;;;;;0.94;75.20;98724.66;4967556;28;20069;-68
2024/01/29 03:55:04;;;;;;;0.20;0.20;;;;;;;0.96;73.95;98726.06;4983359;28;20062;-68
2024/01/29 03:57:31;;;;;;;0.20;0.20;;;;;;;1.08;73.46;98736.72;4967602;28;20067;-68
2024/01/29 03:59:58;;;;;;;0.20;0.20;;;;;;;1.10;73.34;98732.66;4968642;28;20442;-68
2024/01/29 04:02:25;;;;;;;0.20;0.20;;;;;;;0.94;72.86;98722.75;4969049;28;20054;-68
2024/01/29 04:04:52;;;;;;;0.20;0.20;;;;;;;0.42;72.95;98621.13;4967286;28;20059;-68
2024/01/29 04:07:19;;;;;;;0.20;0.20;;;;;;;1.05;72.48;98724.44;4968277;28;20120;-67
2024/01/29 04:09:45;;;;;;;0.20;0.20;;;;;;;1.28;71.83;98729.41;4966940;28;20595;-67
2024/01/29 04:12:13;;;;;;;0.20;0.20;;;;;;;1.33;71.46;98725.84;4968985;28;20095;-68
2024/01/29 04:14:39;;;;;;;0.20;0.20;;;;;;;1.03;71.38;98737.50;4968463;28;20468;-68
2024/01/29 04:17:07;;;;;;;0.20;0.20;;;;;;;1.28;71.08;98729.41;4968345;28;20050;-68
2024/01/29 04:19:34;;;;;;;0.20;0.20;;;;;;;1.28;71.06;98740.31;4967552;28;20062;-69
2024/01/29 04:22:01;;;;;;;0.20;0.20;;;;;;;1.26;71.14;98734.34;4968573;28;20506;-68
2024/01/29 04:24:28;;;;;;;0.22;0.22;;;;;;;0.65;70.58;98626.09;4968777;28;20046;-69
2024/01/29 04:26:56;;;;;;;0.20;0.20;;;;;;;1.51;70.28;98739.84;4968262;28;20062;-68
2024/01/29 04:29:23;;;;;;;0.20;0.20;;;;;;;1.42;69.86;98743.38;4968471;28;20058;-68
2024/01/29 04:31:50;;;;;;;0.20;0.20;;;;;;;1.59;70.20;98741.22;4966336;28;20074;-68
2024/01/29 04:34:17;;;;;;;0.20;0.20;;;;;;;1.24;68.92;98684.66;4966976;28;20062;-68
2024/01/29 04:36:45;;;;;;;0.20;0.20;;;;;;;1.44;68.48;98676.47;4966649;28;20050;-68
2024/01/29 04:39:12;;;;;;;0.20;0.20;;;;;;;1.76;68.42;98747.22;4968142;28;20153;-69
2024/01/29 04:41:38;;;;;;;0.20;0.20;;;;;;;1.96;67.46;98746.44;4967189;28;20065;-67
2024/01/29 04:44:05;;;;;;;0.20;0.20;;;;;;;1.95;67.66;98745.59;4967962;28;20569;-69
2024/01/29 04:46:32;;;;;;;0.20;0.20;;;;;;;2.02;66.67;98739.84;4967741;28;20596;-68
2024/01/29 04:48:59;;;;;;;0.20;0.20;;;;;;;2.05;66.18;98744.78;4968048;28;20047;-68
2024/01/29 04:51:26;;;;;;;0.20;0.20;;;;;;;1.89;67.25;98751.31;4967227;28;20141;-69
2024/01/29 04:53:53;;;;;;;0.20;0.20;;;;;;;2.05;66.94;98761.16;4967733;28;20063;-68
2024/01/29 04:56:20;;;;;;;0.20;0.20;;;;;;;1.87;66.82;98727.00;4967762;28;20050;-69
2024/01/29 04:58:47;;;;;;;0.20;0.20;;;;;;;2.34;65.95;98770.47;4967904;28;20529;-69
2024/01/29 05:01:14;;;;;;;0.20;0.20;;;;;;;1.97;66.38;98735.22;4967627;28;20094;-68
2024/01/29 05:03:41;;;;;;;0.20;0.20;;;;;;;2.20;66.03;98785.75;4966657;28;20053;-68
2024/01/29 05:06:08;;;;;;;0.20;0.20;;;;;;;2.18;66.00;98766.09;4966068;28;20121;-69
2024/01/29 05:08:35;;;;;;;0.20;0.20;;;;;;;1.98;65.69;98779.75;4967563;28;20144;-67
2024/01/29 05:11:02;;;;;;;0.20;0.20;;;;;;;2.29;65.87;98784.13;4967660;28;20109;-68
2024/01/29 05:13:29;;;;;;;0.20;0.20;;;;;;;2.45;65.44;98786.56;4967320;28;20635;-69
2024/01/29 05:15:56;;;;;;;0.20;0.20;;;;;;;2.54;64.77;98789.56;4967518;28;20134;-68
2024/01/29 05:18:23;;;;;;;0.20;0.20;;;;;;;2.30;64.76;98769.34;4965859;28;20062;-68
2024/01/29 05:20:50;;;;;;;0.20;0.20;;;;;;;2.49;64.94;98800.50;4966919;28;20505;-68
2024/01/29 05:23:17;;;;;;;0.20;0.20;;;;;;;2.51;64.46;98787.38;4967121;28;20058;-68
2024/01/29 05:25:44;;;;;;;0.20;0.20;;;;;;;1.96;64.75;98746.44;4965436;28;20269;-68
2024/01/29 05:28:11;;;;;;;0.20;0.20;;;;;;;1.83;65.55;98731.41;4966808;28;20526;-67
2024/01/29 05:30:38;;;;;;;0.20;0.20;;;;;;;1.69;66.57;98729.47;4967311;28;20153;-69
2024/01/29 05:33:05;;;;;;;0.22;0.22;;;;;;;1.67;66.89;98737.09;4965951;28;20065;-69
2024/01/29 05:35:52;;;;;;;0.20;0.20;;;;;;;1.88;67.40;98799.69;4965595;28;20104;-69
2024/01/29 05:38:19;;;;;;;0.20;0.20;;;;;;;1.87;66.59;98811.72;4966411;28;20090;-68
2024/01/29 05:40:46;;;;;;;0.20;0.20;;;;;;;1.60;65.37;98807.56;4965854;28;20057;-69
2024/01/29 05:43:12;;;;;;;0.20;0.20;;;;;;;1.67;64.38;98805.38;4967015;28;20518;-68
2024/01/29 05:45:39;;;;;;;0.20;0.20;;;;;;;1.50;64.90;98808.38;4965420;28;20054;-68
2024/01/29 05:48:08;;;;;;;0.20;0.20;;;;;;;1.12;64.45;98746.81;4966998;28;20046;-69
2024/01/29 05:50:35;;;;;;;0.20;0.20;;;;;;;1.56;64.31;98819.00;4966808;28;20053;-68
2024/01/29 05:53:02;;;;;;;0.20;0.20;;;;;;;1.53;64.18;98825.00;4966700;28;20055;-69
2024/01/29 05:55:29;;;;;;;0.20;0.20;;;;;;;1.63;64.43;98840.59;4964911;28;20113;-68
2024/01/29 05:57:55;;;;;;;0.20;0.20;;;;;;;1.68;64.24;98826.13;4966867;28;20082;-69
2024/01/29 06:00:22;;;;;;;0.20;0.20;;;;;;;1.80;64.39;98834.94;4965058;28;20149;-71
2024/01/29 06:02:49;;;;;;;0.20;0.20;;;;;;;1.94;64.34;98846.97;4966785;28;20458;-68
2024/01/29 06:05:17;;;;;;;0.20;0.20;;;;;;;1.85;63.86;98848.59;4964238;28;20051;-69
2024/01/29 06:07:44;;;;;;;0.22;0.22;;;;;;;1.90;64.03;98851.34;4966091;28;20511;-70
2024/01/29 06:10:14;;;;;;;0.20;0.20;;;;;;;2.05;63.58;98859.56;4966251;28;20642;-70
2024/01/29 06:12:41;;;;;;;0.20;0.20;;;;;;;1.95;63.43;98859.53;4964526;28;20082;-67
2024/01/29 06:15:08;;;;;;;0.20;0.20;;;;;;;1.94;63.80;98860.63;4965868;28;20063;-63
2024/01/29 06:17:35;;;;;;;0.20;0.20;;;;;;;2.19;63.36;98863.41;4966132;28;20053;-70
2024/01/29 06:20:04;;;;;;;0.20;0.20;;;;;;;2.31;62.61;98859.31;4965077;28;20096;-70
2024/01/29 06:22:44;;;;;;;0.20;0.20;;;;;;;2.26;62.42;98877.63;4964845;28;20160;-69
2024/01/29 06:25:11;;;;;;;0.20;0.20;;;;;;;2.26;62.43;98862.03;4965810;28;20055;-69
2024/01/29 06:27:38;;;;;;;0.20;0.20;;;;;;;2.23;62.56;98839.91;4965732;28;20133;-72
2024/01/29 06:30:06;;;;;;;0.20;0.20;;;;;;;1.76;61.96;98774.53;4966034;28;20585;-70
2024/01/29 06:32:32;;;;;;;0.20;0.20;;;;;;;2.49;61.93;98860.69;4980873;28;20131;-69
2024/01/29 06:34:59;;;;;;;0.20;0.20;;;;;;;2.18;61.00;98853.56;4964912;28;20054;-62
2024/01/29 06:37:26;;;;;;;0.20;0.20;;;;;;;2.48;60.80;98864.50;4964340;28;20070;-63
2024/01/29 06:39:53;;;;;;;0.20;0.20;;;;;;;2.61;59.93;98863.94;4966255;28;20047;-63
2024/01/29 06:42:20;;;;;;;0.20;0.20;;;;;;;2.11;58.78;98831.13;4964314;28;20513;-59
2024/01/29 06:44:47;;;;;;;0.20;0.20;;;;;;;2.70;59.14;98813.06;4963440;28;20579;-62
2024/01/29 06:47:17;;;;;;;0.20;0.20;;;;;;;3.13;57.51;98867.13;4963925;28;20055;-60
2024/01/29 06:49:44;;;;;;;0.20;0.20;;;;;;;3.20;56.96;98840.31;4964665;28;20155;-60
2024/01/29 06:52:11;;;;;;;0.20;0.20;;;;;;;1.88;55.01;98679.47;4964955;28;20117;-60
2024/01/29 06:54:44;;;;;;;0.20;0.20;;;;;;;2.88;55.32;98870.75;4965221;28;20057;-71
2024/01/29 06:57:11;;;;;;;0.30;0.30;;;;;;;2.88;55.45;98881.72;4965361;28;20043;-66
2024/01/29 06:59:37;;;;;;;0.30;0.30;;;;;;;3.46;55.38;98877.47;4963716;28;20054;-75
2024/01/29 07:02:05;;;;;;;0.28;0.28;;;;;;;3.52;53.85;98886.47;4965226;28;20131;-73
2024/01/29 07:04:33;;;;;;;0.20;0.20;;;;;;;3.59;53.60;98874.09;4963866;28;20054;-73
2024/01/29 07:07:00;;;;;;;0.20;0.20;;;;;;;3.38;53.45;98899.94;4967000;28;20066;-69
2024/01/29 07:09:27;;;;;;;0.30;0.30;;;;;;;3.68;53.56;98890.78;4959796;28;20059;-69
2024/01/29 07:11:56;;;;;;;0.30;0.30;;;;;;;3.43;53.01;98834.16;4961439;28;20066;-67
2024/01/29 07:14:24;;;;;;;0.20;0.20;;;;;;;3.81;53.11;98874.53;4964245;28;20288;-61
2024/01/29 07:16:52;;;;;;;0.30;0.30;;;;;;;3.44;54.60;98852.25;4962854;28;20502;-64
2024/01/29 07:19:25;;;;;;;0.20;0.20;;;;;;;3.59;54.10;98865.09;4963793;28;20048;-75
2024/01/29 07:21:53;;;;;;;0.20;0.20;;;;;;;2.41;55.55;98749.09;4944521;28;20150;-73
2024/01/29 07:24:20;;;;;;;0.20;0.20;;;;;;;3.02;56.17;98852.66;4977823;28;20090;-75
2024/01/29 07:26:47;;;;;;;0.20;0.20;;;;;;;2.92;56.18;98849.94;4966475;28;20142;-61
2024/01/29 07:29:14;;;;;;;0.20;0.20;;;;;;;2.50;55.57;98752.91;4961953;28;20054;-67
2024/01/29 07:31:41;;;;;;;0.20;0.20;;;;;;;3.10;55.35;98843.06;4965335;28;20046;-67
2024/01/29 07:34:07;;;;;;;0.30;0.30;;;;;;;2.44;55.27;98737.59;4966936;28;20047;-69
2024/01/29 07:36:38;;;;;;;0.20;0.20;;;;;;;2.36;55.79;98713.56;4962619;28;20051;-63
2024/01/29 07:39:05;;;;;;;0.20;0.20;;;;;;;3.42;53.79;98816.09;4978152;28;20047;-63
2024/01/29 07:41:32;;;;;;;0.20;0.20;;;;;;;3.05;53.97;98793.81;4964335;28;20051;-66
2024/01/29 07:43:58;;;;;;;0.20;0.20;;;;;;;3.78;53.29;98875.13;4964223;28;20065;-66
2024/01/29 07:46:25;;;;;;;0.20;0.20;;;;;;;3.37;54.88;98845.47;4964111;28;20140;-62
2024/01/29 07:48:52;;;;;;;0.20;0.20;;;;;;;3.10;55.00;98834.84;4964380;28;20047;-69
2024/01/29 07:51:19;;;;;;;0.20;0.20;;;;;;;3.29;54.58;98860.53;4961982;28;20130;-67
2024/01/29 07:53:45;;;;;;;0.28;0.28;;;;;;;2.34;55.10;98748.59;4963642;28;20058;-72
2024/01/29 07:56:12;;;;;;;0.20;0.20;;;;;;;1.49;56.36;98711.97;4962584;28;20134;-64
2024/01/29 07:58:39;;;;;;;0.20;0.20;;;;;;;2.46;56.55;98866.69;4963071;28;20051;-62
2024/01/29 08:01:06;;;;;;;0.20;0.20;;;;;;;2.68;55.36;98870.78;4962543;28;20054;-61
2024/01/29 08:03:33;;;;;;;0.20;0.20;;;;;;;0.85;55.95;98543.53;4962854;28;20055;-66
2024/01/29 08:06:01;;;;;;;0.20;0.20;;;;;;;2.62;55.04;98783.53;4963709;28;20086;-64
2024/01/29 08:08:28;;;;;;;0.20;0.20;;;;;;;2.75;55.70;98870.53;4961806;28;20058;-66
2024/01/29 08:10:58;;;;;;;0.30;0.30;;;;;;;3.35;55.13;98873.09;4963552;28;20062;-69
2024/01/29 08:13:27;;;;;;;0.20;0.20;;;;;;;2.90;54.72;98818.50;4944950;29;20541;-77
2024/01/29 08:15:55;;;;;;;0.22;0.22;;;;;;;3.24;54.15;98887.91;4956130;28;20058;-67
2024/01/29 08:18:22;;;;;;;0.30;0.30;;;;;;;2.80;55.09;98802.09;4962460;28;20437;-62
2024/01/29 08:20:49;;;;;;;0.30;0.30;;;;;;;2.94;55.28;98853.22;4964220;28;20117;-63
2024/01/29 08:23:16;;;;;;;0.20;0.20;;;;;;;2.70;54.00;98780.25;4963123;28;20054;-64
2024/01/29 08:25:43;;;;;;;0.20;0.20;;;;;;;2.75;53.76;98777.50;4961948;28;20055;-64
2024/01/29 08:28:11;;;;;;;0.20;0.20;;;;;;;2.76;55.07;98765.44;4966071;28;20047;-69
2024/01/29 08:30:38;;;;;;;0.20;0.20;;;;;;;1.22;53.93;98536.72;4968037;28;20054;-74
2024/01/29 08:33:06;;;;;;;0.20;0.20;;;;;;;2.53;53.26;98779.72;4965493;28;20308;-63
2024/01/29 08:35:33;;;;;;;0.20;0.20;;;;;;;2.19;53.93;98745.84;4967303;28;20054;-63
2024/01/29 08:37:59;;;;;;;0.20;0.20;;;;;;;2.70;53.99;98873.25;4966281;28;20055;-62
2024/01/29 08:40:31;;;;;;;0.20;0.20;;;;;;;3.37;53.74;98897.50;4965546;28;20136;-66
2024/01/29 08:42:57;;;;;;;0.30;0.30;;;;;;;3.19;53.74;98756.53;4967846;28;20082;-66
2024/01/29 08:45:25;;;;;;;0.20;0.20;;;;;;;3.50;54.86;98911.41;4967463;28;20066;-62
2024/01/29 08:47:51;;;;;;;0.30;0.30;;;;;;;1.40;54.53;98511.59;4975884;28;20109;-60
2024/01/29 08:50:18;;;;;;;0.20;0.20;;;;;;;2.41;54.96;98714.38;4966602;28;20076;-67
2024/01/29 08:52:45;;;;;;;0.30;0.30;;;;;;;2.89;54.66;98793.03;4967402;28;20050;-68
2024/01/29 08:55:12;;;;;;;0.20;0.20;;;;;;;3.78;54.68;98897.03;4967178;28;20069;-63
2024/01/29 08:57:39;;;;;;;0.20;0.20;;;;;;;1.26;56.24;98554.19;4966983;28;20098;-68
2024/01/29 09:00:07;;;;;;;0.25;0.25;;;;;;;3.94;54.09;98895.88;4984426;28;20090;-64
2024/01/29 09:02:34;;;;;;;0.30;0.30;;;;;;;2.92;55.02;98839.00;4966515;28;20165;-68
2024/01/29 09:05:01;;;;;;;0.25;0.25;;;;;;;3.57;54.84;98906.47;4965697;28;20062;-67
2024/01/29 09:07:28;;;;;;;0.30;0.30;;;;;;;3.61;54.44;98885.59;4966357;28;20063;-62
2024/01/29 09:09:55;;;;;;;0.20;0.20;;;;;;;3.40;54.73;98881.31;4966951;28;20046;-63
2024/01/29 09:12:22;;;;;;;0.28;0.28;;;;;;;4.08;54.62;98902.34;4966658;28;20133;-67
2024/01/29 09:14:48;;;;;;;0.25;0.25;;;;;;;4.32;53.32;98919.78;4966642;28;20058;-64
2024/01/29 09:17:15;;;;;;;0.30;0.30;;;;;;;2.97;54.74;98736.91;4966941;28;20058;-60
2024/01/29 09:19:45;;;;;;;0.20;0.20;;;;;;;3.71;54.04;98920.38;4966825;28;20529;-62
2024/01/29 09:22:12;;;;;;;0.20;0.20;;;;;;;3.45;54.60;98907.84;4966201;28;20079;-64
2024/01/29 09:24:40;;;;;;;0.30;0.30;;;;;;;3.39;54.31;98900.75;4966846;28;20060;-61
2024/01/29 09:27:07;;;;;;;0.30;0.30;;;;;;;4.19;53.57;98898.44;4957801;28;20128;-60
2024/01/29 09:29:34;;;;;;;0.20;0.20;;;;;;;3.67;54.58;98867.22;4964423;28;20066;-75
2024/01/29 09:32:01;;;;;;;0.20;0.20;;;;;;;3.81;53.02;98879.22;4964929;28;20509;-67
2024/01/29 09:34:28;;;;;;;0.30;0.30;;;;;;;3.95;54.57;98892.00;4965156;28;20604;-61
2024/01/29 09:36:56;;;;;;;0.30;0.30;;;;;;;4.32;53.82;98880.53;4965706;28;20422;-64
2024/01/29 09:39:26;;;;;;;0.20;0.20;;;;;;;4.56;53.03;98890.53;4966223;28;20046;-66
2024/01/29 09:42:02;;;;;;;0.30;0.30;;;;;;;4.97;51.18;98887.41;4965846;28;20058;-71
2024/01/29 09:44:39;;;;;;;0.30;0.30;;;;;;;4.43;51.40;98893.06;4966408;28;20137;-68
2024/01/29 09:47:07;;;;;;;0.20;0.20;;;;;;;4.41;51.93;98896.09;4964766;28;20510;-67
2024/01/29 09:49:35;;;;;;;0.30;0.30;;;;;;;4.16;51.85;98866.13;4965726;28;20053;-66
2024/01/29 09:52:09;;;;;;;0.28;0.28;;;;;;;4.23;52.40;98838.38;4965311;28;20055;-66
2024/01/29 09:54:36;;;;;;;0.25;0.25;;;;;;;5.18;51.55;98888.84;4965835;28;20059;-72
2024/01/29 09:57:04;;;;;;;0.30;0.30;;;;;;;4.60;50.72;98795.53;4964722;28;20054;-69
2024/01/29 09:59:31;;;;;;;0.30;0.30;;;;;;;5.23;51.09;98870.38;4966573;28;20084;-63
2024/01/29 10:02:00;;;;;;;0.30;0.30;;;;;;;5.24;51.07;98835.50;4965114;28;20047;-64
2024/01/29 10:04:28;;;;;;;0.30;0.30;;;;;;;5.01;50.03;98820.63;4950998;28;20078;-69
2024/01/29 10:06:55;;;;;;;0.20;0.20;;;;;;;4.44;51.48;98813.22;4964359;28;20063;-67
2024/01/29 10:09:22;;;;;;;0.30;0.30;;;;;;;4.24;52.98;98872.91;4964437;28;20538;-61
2024/01/29 10:11:49;;;;;;;0.30;0.30;;;;;;;3.07;52.58;98687.59;4976188;28;20046;-70
2024/01/29 10:14:17;;;;;;;0.22;0.22;;;;;;;3.99;53.48;98867.59;4979326;28;20454;-69
2024/01/29 10:16:43;;;;;;;0.30;0.30;;;;;;;3.91;53.19;98863.53;4963867;28;20069;-67
2024/01/29 10:19:12;;;;;;;0.28;0.28;;;;;;;3.85;53.68;98872.91;4964811;28;20055;-71
2024/01/29 10:21:43;;;;;;;0.30;0.30;;;;;;;4.25;52.49;98864.41;4965298;28;20046;-61
2024/01/29 10:24:15;;;;;;;0.20;0.20;;;;;;;3.22;53.04;98750.50;4962871;28;20109;-67
2024/01/29 10:26:43;;;;;;;0.20;0.20;;;;;;;4.03;51.92;98828.34;4962066;28;20105;-61
2024/01/29 10:29:11;;;;;;;0.20;0.20;;;;;;;3.88;52.14;98809.28;4978921;28;20062;-68
2024/01/29 10:31:41;;;;;;;0.20;0.20;;;;;;;3.62;53.44;98843.41;4962906;28;20679;-61
2024/01/29 10:34:08;;;;;;;0.20;0.20;;;;;;;4.21;53.10;98866.09;4965086;28;20062;-62
2024/01/29 10:36:38;;;;;;;0.20;0.20;;;;;;;3.49;52.78;98774.72;4965116;28;20051;-62
2024/01/29 10:39:07;;;;;;;0.20;0.20;;;;;;;4.51;52.83;98812.91;4964889;28;20050;-67
2024/01/29 10:41:35;;;;;;;0.30;0.30;;;;;;;4.70;51.73;98797.34;4965187;28;20066;-61
2024/01/29 10:44:04;;;;;;;0.20;0.20;;;;;;;3.63;52.26;98677.09;4965224;28;20051;-61
2024/01/29 10:46:38;;;;;;;0.30;0.30;;;;;;;4.73;52.24;98848.13;4964912;28;20138;-65
2024/01/29 10:49:06;;;;;;;0.30;0.30;;;;;;;4.62;53.36;98841.88;4964986;28;20065;-62
2024/01/29 10:51:34;;;;;;;0.30;0.30;;;;;;;4.93;51.02;98847.91;4964701;28;20051;-61
2024/01/29 10:54:01;;;;;;;0.30;0.30;;;;;;;4.50;52.64;98845.00;4965345;28;20059;-67
2024/01/29 10:56:30;;;;;;;0.30;0.30;;;;;;;4.07;53.53;98829.44;4965213;28;20576;-66
2024/01/29 10:58:59;;;;;;;0.30;0.30;;;;;;;4.33;54.09;98833.63;4965192;28;20073;-67
2024/01/29 11:01:31;;;;;;;0.20;0.20;;;;;;;4.23;53.51;98852.91;4964866;28;20050;-67
2024/01/29 11:04:00;;;;;;;0.30;0.30;;;;;;;3.07;53.83;98706.75;4964841;28;20050;-63
2024/01/29 11:06:30;;;;;;;0.30;0.30;;;;;;;4.06;54.08;98846.97;4964371;28;20090;-62
2024/01/29 11:09:02;;;;;;;0.20;0.20;;;;;;;3.16;55.01;98756.25;4964658;28;20175;-67
2024/01/29 11:11:30;;;;;;;0.20;0.20;;;;;;;2.22;56.17;98674.22;4964960;28;20072;-62
2024/01/29 11:13:57;;;;;;;0.22;0.22;;;;;;;3.70;55.36;98844.75;4963787;28;20051;-69
2024/01/29 11:16:24;;;;;;;0.20;0.20;;;;;;;2.78;55.75;98733.16;4964482;28;20054;-63
2024/01/29 11:18:51;;;;;;;0.20;0.20;;;;;;;3.57;56.04;98829.75;4964771;28;20338;-61
2024/01/29 11:21:23;;;;;;;0.20;0.20;;;;;;;3.53;55.53;98834.13;4964456;28;20560;-67
2024/01/29 11:23:54;;;;;;;0.20;0.20;;;;;;;3.28;56.27;98826.03;4964228;28;20062;-61
2024/01/29 11:26:24;;;;;;;0.20;0.20;;;;;;;3.24;56.50;98841.38;4964270;28;20149;-68
2024/01/29 11:29:01;;;;;;;0.20;0.20;;;;;;;2.88;56.34;98733.94;4963817;28;20465;-69
2024/01/29 11:31:42;;;;;;;0.28;0.28;;;;;;;3.07;55.81;98736.84;4963082;28;20150;-67
2024/01/29 11:34:11;;;;;;;0.20;0.20;;;;;;;3.51;55.65;98844.56;4965310;28;20051;-65
2024/01/29 11:36:38;;;;;;;0.20;0.20;;;;;;;3.35;56.15;98832.00;4963047;28;20059;-64
2024/01/29 11:39:08;;;;;;;0.20;0.20;;;;;;;3.41;56.36;98841.03;4964533;28;20055;-64
2024/01/29 11:41:37;;;;;;;0.20;0.20;;;;;;;3.24;55.96;98824.94;4963970;28;20559;-65
2024/01/29 11:44:04;;;;;;;0.20;0.20;;;;;;;3.16;55.56;98770.78;4964534;28;20046;-60